sensor_id;sensor_type;location;lat;lon;timestamp;pressure;altitude;pressure_sealevel;temperature;humidity
59939;BME280;45801;51.810;19.444;2023-09-30T00:01:18;99286.61;;;19.33;55.35
59939;BME280;45801;51.810;19.444;2023-09-30T00:03:44;99283.23;;;19.33;55.78
59939;BME280;45801;51.810;19.444;2023-09-30T00:06:10;99284.30;;;19.34;56.43
59939;BME280;45801;51.810;19.444;2023-09-30T00:08:36;99285.19;;;19.34;56.17
59939;BME280;45801;51.810;19.444;2023-09-30T00:11:05;99281.30;;;19.33;56.16
59939;BME280;45801;51.810;19.444;2023-09-30T00:13:31;99285.72;;;19.32;56.33
59939;BME280;45801;51.810;19.444;2023-09-30T00:15:57;99285.52;;;19.31;56.20
59939;BME280;45801;51.810;19.444;2023-09-30T00:18:23;99282.86;;;19.32;56.30
59939;BME280;45801;51.810;19.444;2023-09-30T00:20:49;99280.23;;;19.33;56.51
59939;BME280;45801;51.810;19.444;2023-09-30T00:23:15;99287.15;;;19.35;56.79
59939;BME280;45801;51.810;19.444;2023-09-30T00:25:41;99286.10;;;19.36;56.57
59939;BME280;45801;51.810;19.444;2023-09-30T00:28:07;99279.90;;;19.38;56.78
59939;BME280;45801;51.810;19.444;2023-09-30T00:30:33;99276.52;;;19.38;56.00
59939;BME280;45801;51.810;19.444;2023-09-30T00:32:59;99274.38;;;19.35;55.88
59939;BME280;45801;51.810;19.444;2023-09-30T00:35:25;99273.61;;;19.29;56.51
59939;BME280;45801;51.810;19.444;2023-09-30T00:37:51;99273.02;;;19.23;56.82
59939;BME280;45801;51.810;19.444;2023-09-30T00:40:17;99267.10;;;19.17;57.51
59939;BME280;45801;51.810;19.444;2023-09-30T00:42:43;99267.58;;;19.10;57.65
59939;BME280;45801;51.810;19.444;2023-09-30T00:45:09;99266.80;;;19.03;57.32
59939;BME280;45801;51.810;19.444;2023-09-30T00:47:36;99266.75;;;18.98;58.21
59939;BME280;45801;51.810;19.444;2023-09-30T00:50:04;99270.41;;;18.91;58.81
59939;BME280;45801;51.810;19.444;2023-09-30T00:52:33;99273.35;;;18.86;58.70
59939;BME280;45801;51.810;19.444;2023-09-30T00:55:01;99267.96;;;18.82;58.16
59939;BME280;45801;51.810;19.444;2023-09-30T00:57:29;99268.32;;;18.80;58.22
59939;BME280;45801;51.810;19.444;2023-09-30T00:59:56;99274.14;;;18.78;57.71
59939;BME280;45801;51.810;19.444;2023-09-30T01:02:22;99271.27;;;18.75;59.36
59939;BME280;45801;51.810;19.444;2023-09-30T01:04:49;99268.92;;;18.71;59.91
59939;BME280;45801;51.810;19.444;2023-09-30T01:07:14;99269.41;;;18.68;58.91
59939;BME280;45801;51.810;19.444;2023-09-30T01:09:40;99271.16;;;18.67;59.77
59939;BME280;45801;51.810;19.444;2023-09-30T01:12:09;99269.73;;;18.64;59.97
59939;BME280;45801;51.810;19.444;2023-09-30T01:14:35;99266.31;;;18.60;60.45
59939;BME280;45801;51.810;19.444;2023-09-30T01:17:03;99274.80;;;18.57;60.55
59939;BME280;45801;51.810;19.444;2023-09-30T01:19:30;99275.79;;;18.53;61.11
59939;BME280;45801;51.810;19.444;2023-09-30T01:21:56;99275.58;;;18.50;60.68
59939;BME280;45801;51.810;19.444;2023-09-30T01:24:29;99273.08;;;18.47;60.36
59939;BME280;45801;51.810;19.444;2023-09-30T01:26:56;99272.52;;;18.46;60.87
59939;BME280;45801;51.810;19.444;2023-09-30T01:29:22;99272.52;;;18.45;60.81
59939;BME280;45801;51.810;19.444;2023-09-30T01:31:48;99272.33;;;18.44;60.60
59939;BME280;45801;51.810;19.444;2023-09-30T01:34:16;99273.56;;;18.43;60.63
59939;BME280;45801;51.810;19.444;2023-09-30T01:36:43;99269.29;;;18.41;60.70
59939;BME280;45801;51.810;19.444;2023-09-30T01:39:10;99269.27;;;18.41;61.22
59939;BME280;45801;51.810;19.444;2023-09-30T01:41:37;99264.99;;;18.38;61.82
59939;BME280;45801;51.810;19.444;2023-09-30T01:44:03;99266.19;;;18.35;62.64
59939;BME280;45801;51.810;19.444;2023-09-30T01:46:29;99267.56;;;18.32;63.31
59939;BME280;45801;51.810;19.444;2023-09-30T01:48:55;99265.38;;;18.27;63.44
59939;BME280;45801;51.810;19.444;2023-09-30T01:51:21;99264.83;;;18.25;63.20
59939;BME280;45801;51.810;19.444;2023-09-30T01:53:47;99271.89;;;18.23;63.55
59939;BME280;45801;51.810;19.444;2023-09-30T01:56:13;99275.94;;;18.21;63.97
59939;BME280;45801;51.810;19.444;2023-09-30T01:58:39;99271.15;;;18.20;63.69
59939;BME280;45801;51.810;19.444;2023-09-30T02:01:05;99262.09;;;18.19;63.52
59939;BME280;45801;51.810;19.444;2023-09-30T02:03:32;99256.05;;;18.18;64.30
59939;BME280;45801;51.810;19.444;2023-09-30T02:05:58;99256.03;;;18.17;64.85
59939;BME280;45801;51.810;19.444;2023-09-30T02:08:24;99252.99;;;18.15;65.35
59939;BME280;45801;51.810;19.444;2023-09-30T02:10:50;99258.45;;;18.12;65.60
59939;BME280;45801;51.810;19.444;2023-09-30T02:13:19;99257.70;;;18.10;65.60
59939;BME280;45801;51.810;19.444;2023-09-30T02:15:46;99261.41;;;18.08;66.28
59939;BME280;45801;51.810;19.444;2023-09-30T02:18:12;99271.66;;;18.07;65.73
59939;BME280;45801;51.810;19.444;2023-09-30T02:20:38;99274.49;;;18.06;66.29
59939;BME280;45801;51.810;19.444;2023-09-30T02:23:06;99279.77;;;18.03;65.98
59939;BME280;45801;51.810;19.444;2023-09-30T02:25:31;99277.44;;;18.01;66.49
59939;BME280;45801;51.810;19.444;2023-09-30T02:27:59;99279.73;;;17.99;67.01
59939;BME280;45801;51.810;19.444;2023-09-30T02:30:26;99280.73;;;17.97;67.57
59939;BME280;45801;51.810;19.444;2023-09-30T02:32:53;99281.75;;;17.93;68.67
59939;BME280;45801;51.810;19.444;2023-09-30T02:35:19;99281.33;;;17.89;68.11
59939;BME280;45801;51.810;19.444;2023-09-30T02:37:46;99283.06;;;17.87;68.30
59939;BME280;45801;51.810;19.444;2023-09-30T02:40:11;99278.59;;;17.85;68.46
59939;BME280;45801;51.810;19.444;2023-09-30T02:42:40;99275.75;;;17.84;68.52
59939;BME280;45801;51.810;19.444;2023-09-30T02:45:07;99265.45;;;17.82;69.11
59939;BME280;45801;51.810;19.444;2023-09-30T02:47:34;99263.98;;;17.79;70.19
59939;BME280;45801;51.810;19.444;2023-09-30T02:50:00;99262.17;;;17.77;70.16
59939;BME280;45801;51.810;19.444;2023-09-30T02:52:27;99256.98;;;17.74;70.41
59939;BME280;45801;51.810;19.444;2023-09-30T02:54:54;99250.58;;;17.71;70.82
59939;BME280;45801;51.810;19.444;2023-09-30T02:57:20;99247.52;;;17.68;71.36
59939;BME280;45801;51.810;19.444;2023-09-30T02:59:47;99239.86;;;17.65;71.36
59939;BME280;45801;51.810;19.444;2023-09-30T03:02:13;99236.64;;;17.63;71.17
59939;BME280;45801;51.810;19.444;2023-09-30T03:04:41;99242.45;;;17.61;71.59
59939;BME280;45801;51.810;19.444;2023-09-30T03:07:08;99262.00;;;17.55;71.08
59939;BME280;45801;51.810;19.444;2023-09-30T03:09:34;99262.64;;;17.50;71.22
59939;BME280;45801;51.810;19.444;2023-09-30T03:12:02;99260.47;;;17.47;71.84
59939;BME280;45801;51.810;19.444;2023-09-30T03:14:28;99261.69;;;17.45;71.23
59939;BME280;45801;51.810;19.444;2023-09-30T03:16:59;99254.25;;;17.45;71.10
59939;BME280;45801;51.810;19.444;2023-09-30T03:19:25;99248.77;;;17.45;71.27
59939;BME280;45801;51.810;19.444;2023-09-30T03:21:51;99249.84;;;17.46;72.01
59939;BME280;45801;51.810;19.444;2023-09-30T03:24:17;99252.30;;;17.45;71.72
59939;BME280;45801;51.810;19.444;2023-09-30T03:26:43;99249.13;;;17.45;71.74
59939;BME280;45801;51.810;19.444;2023-09-30T03:29:09;99252.83;;;17.45;71.73
59939;BME280;45801;51.810;19.444;2023-09-30T03:31:35;99251.73;;;17.43;71.87
59939;BME280;45801;51.810;19.444;2023-09-30T03:34:02;99246.75;;;17.42;71.93
59939;BME280;45801;51.810;19.444;2023-09-30T03:36:30;99247.63;;;17.41;72.42
59939;BME280;45801;51.810;19.444;2023-09-30T03:38:56;99246.55;;;17.40;72.14
59939;BME280;45801;51.810;19.444;2023-09-30T03:41:22;99255.00;;;17.37;72.18
59939;BME280;45801;51.810;19.444;2023-09-30T03:43:48;99256.52;;;17.33;72.69
59939;BME280;45801;51.810;19.444;2023-09-30T03:46:15;99254.75;;;17.32;73.31
59939;BME280;45801;51.810;19.444;2023-09-30T03:48:41;99257.55;;;17.31;73.37
59939;BME280;45801;51.810;19.444;2023-09-30T03:51:09;99250.99;;;17.30;73.07
59939;BME280;45801;51.810;19.444;2023-09-30T03:53:40;99253.10;;;17.28;73.42
59939;BME280;45801;51.810;19.444;2023-09-30T03:56:06;99252.73;;;17.27;72.85
59939;BME280;45801;51.810;19.444;2023-09-30T03:58:32;99253.09;;;17.27;73.43
59939;BME280;45801;51.810;19.444;2023-09-30T04:00:59;99255.89;;;17.26;74.01
59939;BME280;45801;51.810;19.444;2023-09-30T04:03:26;99263.11;;;17.24;74.03
59939;BME280;45801;51.810;19.444;2023-09-30T04:05:53;99269.27;;;17.22;74.01
59939;BME280;45801;51.810;19.444;2023-09-30T04:08:19;99277.55;;;17.20;74.42
59939;BME280;45801;51.810;19.444;2023-09-30T04:10:45;99286.36;;;17.18;74.03
59939;BME280;45801;51.810;19.444;2023-09-30T04:13:10;99290.42;;;17.17;73.70
59939;BME280;45801;51.810;19.444;2023-09-30T04:15:37;99291.30;;;17.17;74.12
59939;BME280;45801;51.810;19.444;2023-09-30T04:18:04;99292.35;;;17.16;74.49
59939;BME280;45801;51.810;19.444;2023-09-30T04:20:31;99288.79;;;17.15;74.42
59939;BME280;45801;51.810;19.444;2023-09-30T04:22:57;99286.50;;;17.14;74.75
59939;BME280;45801;51.810;19.444;2023-09-30T04:25:23;99283.69;;;17.16;74.81
59939;BME280;45801;51.810;19.444;2023-09-30T04:27:53;99283.33;;;17.17;74.96
59939;BME280;45801;51.810;19.444;2023-09-30T04:30:19;99281.37;;;17.16;75.92
59939;BME280;45801;51.810;19.444;2023-09-30T04:32:45;99279.40;;;17.14;75.94
59939;BME280;45801;51.810;19.444;2023-09-30T04:35:11;99281.32;;;17.12;76.00
59939;BME280;45801;51.810;19.444;2023-09-30T04:37:37;99283.77;;;17.10;76.72
59939;BME280;45801;51.810;19.444;2023-09-30T04:40:04;99284.79;;;17.09;76.71
59939;BME280;45801;51.810;19.444;2023-09-30T04:42:43;99287.95;;;17.07;76.53
59939;BME280;45801;51.810;19.444;2023-09-30T04:45:10;99294.31;;;17.07;77.01
59939;BME280;45801;51.810;19.444;2023-09-30T04:47:36;99296.23;;;17.06;76.67
59939;BME280;45801;51.810;19.444;2023-09-30T04:50:08;99294.31;;;17.07;76.86
59939;BME280;45801;51.810;19.444;2023-09-30T04:52:34;99298.95;;;17.08;76.86
59939;BME280;45801;51.810;19.444;2023-09-30T04:55:00;99298.26;;;17.09;76.68
59939;BME280;45801;51.810;19.444;2023-09-30T04:57:26;99298.64;;;17.11;76.46
59939;BME280;45801;51.810;19.444;2023-09-30T04:59:52;99302.19;;;17.11;76.64
59939;BME280;45801;51.810;19.444;2023-09-30T05:02:18;99301.65;;;17.11;76.52
59939;BME280;45801;51.810;19.444;2023-09-30T05:04:44;99302.37;;;17.12;76.70
59939;BME280;45801;51.810;19.444;2023-09-30T05:07:10;99296.56;;;17.13;76.89
59939;BME280;45801;51.810;19.444;2023-09-30T05:09:36;99295.17;;;17.16;77.13
59939;BME280;45801;51.810;19.444;2023-09-30T05:12:02;99294.64;;;17.16;77.59
59939;BME280;45801;51.810;19.444;2023-09-30T05:14:30;99304.88;;;17.14;78.44
59939;BME280;45801;51.810;19.444;2023-09-30T05:16:56;99318.09;;;17.10;78.32
59939;BME280;45801;51.810;19.444;2023-09-30T05:19:22;99318.59;;;17.09;78.32
59939;BME280;45801;51.810;19.444;2023-09-30T05:21:48;99313.99;;;17.09;77.76
59939;BME280;45801;51.810;19.444;2023-09-30T05:24:15;99307.80;;;17.09;78.22
59939;BME280;45801;51.810;19.444;2023-09-30T05:26:44;99308.36;;;17.11;78.18
59939;BME280;45801;51.810;19.444;2023-09-30T05:29:10;99310.70;;;17.13;78.28
59939;BME280;45801;51.810;19.444;2023-09-30T05:31:36;99314.80;;;17.15;78.11
59939;BME280;45801;51.810;19.444;2023-09-30T05:34:02;99317.48;;;17.17;78.60
59939;BME280;45801;51.810;19.444;2023-09-30T05:36:29;99321.90;;;17.15;79.20
59939;BME280;45801;51.810;19.444;2023-09-30T05:38:55;99330.52;;;17.13;79.66
59939;BME280;45801;51.810;19.444;2023-09-30T05:41:21;99332.30;;;17.12;79.30
59939;BME280;45801;51.810;19.444;2023-09-30T05:43:47;99337.95;;;17.12;80.13
59939;BME280;45801;51.810;19.444;2023-09-30T05:46:14;99341.84;;;17.12;80.51
59939;BME280;45801;51.810;19.444;2023-09-30T05:48:41;99340.79;;;17.12;80.60
59939;BME280;45801;51.810;19.444;2023-09-30T05:51:07;99342.40;;;17.14;80.85
59939;BME280;45801;51.810;19.444;2023-09-30T05:53:33;99347.23;;;17.17;80.84
59939;BME280;45801;51.810;19.444;2023-09-30T05:55:59;99346.73;;;17.19;81.08
59939;BME280;45801;51.810;19.444;2023-09-30T05:58:25;99349.24;;;17.20;81.20
59939;BME280;45801;51.810;19.444;2023-09-30T06:00:54;99353.35;;;17.22;81.00
59939;BME280;45801;51.810;19.444;2023-09-30T06:03:21;99355.88;;;17.25;80.87
59939;BME280;45801;51.810;19.444;2023-09-30T06:05:49;99357.00;;;17.28;80.70
59939;BME280;45801;51.810;19.444;2023-09-30T06:08:15;99351.04;;;17.31;81.07
59939;BME280;45801;51.810;19.444;2023-09-30T06:10:42;99351.79;;;17.34;81.25
59939;BME280;45801;51.810;19.444;2023-09-30T06:13:12;99353.42;;;17.35;82.01
59939;BME280;45801;51.810;19.444;2023-09-30T06:15:41;99354.34;;;17.37;81.73
59939;BME280;45801;51.810;19.444;2023-09-30T06:18:08;99355.79;;;17.40;82.43
59939;BME280;45801;51.810;19.444;2023-09-30T06:20:39;99362.55;;;17.42;83.00
59939;BME280;45801;51.810;19.444;2023-09-30T06:23:04;99364.14;;;17.41;83.50
59939;BME280;45801;51.810;19.444;2023-09-30T06:25:30;99368.56;;;17.42;83.74
59939;BME280;45801;51.810;19.444;2023-09-30T06:27:58;99368.96;;;17.44;83.26
59939;BME280;45801;51.810;19.444;2023-09-30T06:30:24;99375.91;;;17.46;83.47
59939;BME280;45801;51.810;19.444;2023-09-30T06:32:58;99377.36;;;17.47;83.57
59939;BME280;45801;51.810;19.444;2023-09-30T06:35:26;99380.02;;;17.48;83.30
59939;BME280;45801;51.810;19.444;2023-09-30T06:37:52;99377.22;;;17.50;83.33
59939;BME280;45801;51.810;19.444;2023-09-30T06:40:18;99373.90;;;17.53;83.02
59939;BME280;45801;51.810;19.444;2023-09-30T06:42:44;99375.02;;;17.56;83.00
59939;BME280;45801;51.810;19.444;2023-09-30T06:45:10;99377.90;;;17.59;82.88
59939;BME280;45801;51.810;19.444;2023-09-30T06:47:37;99384.33;;;17.62;83.09
59939;BME280;45801;51.810;19.444;2023-09-30T06:50:07;99386.85;;;17.64;83.32
59939;BME280;45801;51.810;19.444;2023-09-30T06:52:35;99390.24;;;17.65;82.66
59939;BME280;45801;51.810;19.444;2023-09-30T06:55:02;99394.50;;;17.65;83.10
59939;BME280;45801;51.810;19.444;2023-09-30T06:57:37;99394.89;;;17.67;82.79
59939;BME280;45801;51.810;19.444;2023-09-30T07:00:13;99400.22;;;17.69;83.05
59939;BME280;45801;51.810;19.444;2023-09-30T07:02:40;99402.52;;;17.69;83.07
59939;BME280;45801;51.810;19.444;2023-09-30T07:05:14;99401.86;;;17.71;83.39
59939;BME280;45801;51.810;19.444;2023-09-30T07:07:41;99405.24;;;17.72;83.58
59939;BME280;45801;51.810;19.444;2023-09-30T07:10:09;99399.60;;;17.74;83.64
59939;BME280;45801;51.810;19.444;2023-09-30T07:12:36;99404.77;;;17.75;84.45
59939;BME280;45801;51.810;19.444;2023-09-30T07:15:05;99411.69;;;17.77;84.29
59939;BME280;45801;51.810;19.444;2023-09-30T07:17:32;99413.31;;;17.79;83.80
59939;BME280;45801;51.810;19.444;2023-09-30T07:19:59;99419.52;;;17.79;84.42
59939;BME280;45801;51.810;19.444;2023-09-30T07:22:25;99422.71;;;17.79;84.19
59939;BME280;45801;51.810;19.444;2023-09-30T07:24:51;99426.62;;;17.79;83.96
59939;BME280;45801;51.810;19.444;2023-09-30T07:27:17;99427.88;;;17.80;84.09
59939;BME280;45801;51.810;19.444;2023-09-30T07:29:43;99430.92;;;17.82;83.47
59939;BME280;45801;51.810;19.444;2023-09-30T07:32:09;99429.15;;;17.82;83.82
59939;BME280;45801;51.810;19.444;2023-09-30T07:34:35;99431.48;;;17.84;83.70
59939;BME280;45801;51.810;19.444;2023-09-30T07:37:01;99435.04;;;17.84;83.65
59939;BME280;45801;51.810;19.444;2023-09-30T07:39:29;99438.62;;;17.87;83.60
59939;BME280;45801;51.810;19.444;2023-09-30T07:41:54;99442.59;;;17.89;83.62
59939;BME280;45801;51.810;19.444;2023-09-30T07:44:20;99446.37;;;17.93;83.86
59939;BME280;45801;51.810;19.444;2023-09-30T07:46:46;99454.22;;;17.96;84.46
59939;BME280;45801;51.810;19.444;2023-09-30T07:49:12;99454.61;;;17.98;84.85
59939;BME280;45801;51.810;19.444;2023-09-30T07:51:38;99450.41;;;18.01;85.21
59939;BME280;45801;51.810;19.444;2023-09-30T07:54:07;99451.00;;;18.04;84.83
59939;BME280;45801;51.810;19.444;2023-09-30T07:56:33;99452.81;;;18.07;85.57
59939;BME280;45801;51.810;19.444;2023-09-30T07:58:59;99455.87;;;18.10;84.92
59939;BME280;45801;51.810;19.444;2023-09-30T08:01:25;99459.10;;;18.11;84.44
59939;BME280;45801;51.810;19.444;2023-09-30T08:03:51;99460.34;;;18.12;84.96
59939;BME280;45801;51.810;19.444;2023-09-30T08:06:16;99463.36;;;18.12;84.65
59939;BME280;45801;51.810;19.444;2023-09-30T08:08:42;99470.68;;;18.16;85.26
59939;BME280;45801;51.810;19.444;2023-09-30T08:11:08;99473.52;;;18.16;84.99
59939;BME280;45801;51.810;19.444;2023-09-30T08:13:34;99476.94;;;18.18;85.05
59939;BME280;45801;51.810;19.444;2023-09-30T08:16:00;99472.55;;;18.22;84.88
59939;BME280;45801;51.810;19.444;2023-09-30T08:18:26;99476.52;;;18.26;84.40
59939;BME280;45801;51.810;19.444;2023-09-30T08:20:52;99473.92;;;18.29;84.01
59939;BME280;45801;51.810;19.444;2023-09-30T08:23:18;99474.14;;;18.32;83.35
59939;BME280;45801;51.810;19.444;2023-09-30T08:25:44;99477.63;;;18.39;83.26
59939;BME280;45801;51.810;19.444;2023-09-30T08:28:10;99478.95;;;18.45;83.31
59939;BME280;45801;51.810;19.444;2023-09-30T08:30:37;99478.66;;;18.49;83.01
59939;BME280;45801;51.810;19.444;2023-09-30T08:33:06;99477.16;;;18.55;83.25
59939;BME280;45801;51.810;19.444;2023-09-30T08:35:36;99475.29;;;18.61;82.86
59939;BME280;45801;51.810;19.444;2023-09-30T08:38:06;99480.30;;;18.63;82.25
59939;BME280;45801;51.810;19.444;2023-09-30T08:40:31;99483.20;;;18.67;81.94
59939;BME280;45801;51.810;19.444;2023-09-30T08:42:57;99479.54;;;18.72;82.33
59939;BME280;45801;51.810;19.444;2023-09-30T08:45:24;99480.08;;;18.74;81.51
59939;BME280;45801;51.810;19.444;2023-09-30T08:47:54;99486.63;;;18.73;81.51
59939;BME280;45801;51.810;19.444;2023-09-30T08:50:20;99489.92;;;18.67;80.72
59939;BME280;45801;51.810;19.444;2023-09-30T08:52:55;99497.11;;;18.61;80.27
59939;BME280;45801;51.810;19.444;2023-09-30T08:55:22;99499.82;;;18.52;80.45
59939;BME280;45801;51.810;19.444;2023-09-30T08:57:53;99506.58;;;18.42;79.98
59939;BME280;45801;51.810;19.444;2023-09-30T09:00:20;99511.56;;;18.33;80.31
59939;BME280;45801;51.810;19.444;2023-09-30T09:02:49;99522.59;;;18.24;80.21
59939;BME280;45801;51.810;19.444;2023-09-30T09:05:17;99527.98;;;18.17;80.52
59939;BME280;45801;51.810;19.444;2023-09-30T09:07:43;99527.58;;;18.15;80.90
59939;BME280;45801;51.810;19.444;2023-09-30T09:10:13;99528.59;;;18.13;80.57
59939;BME280;45801;51.810;19.444;2023-09-30T09:12:40;99531.73;;;18.09;80.79
59939;BME280;45801;51.810;19.444;2023-09-30T09:15:07;99534.05;;;18.10;81.13
59939;BME280;45801;51.810;19.444;2023-09-30T09:17:41;99539.52;;;18.09;80.72
59939;BME280;45801;51.810;19.444;2023-09-30T09:20:11;99545.91;;;18.08;80.49
59939;BME280;45801;51.810;19.444;2023-09-30T09:22:43;99547.86;;;18.09;79.79
59939;BME280;45801;51.810;19.444;2023-09-30T09:25:10;99551.83;;;18.02;79.04
59939;BME280;45801;51.810;19.444;2023-09-30T09:27:37;99554.41;;;17.99;79.00
59939;BME280;45801;51.810;19.444;2023-09-30T09:30:17;99559.73;;;17.99;79.02
59939;BME280;45801;51.810;19.444;2023-09-30T09:33:01;99562.90;;;17.98;79.06
59939;BME280;45801;51.810;19.444;2023-09-30T09:35:32;99565.33;;;17.96;78.65
59939;BME280;45801;51.810;19.444;2023-09-30T09:38:04;99572.58;;;17.95;78.89
59939;BME280;45801;51.810;19.444;2023-09-30T09:40:34;99579.98;;;17.93;79.11
59939;BME280;45801;51.810;19.444;2023-09-30T09:43:04;99580.83;;;17.90;79.35
59939;BME280;45801;51.810;19.444;2023-09-30T09:45:35;99585.53;;;17.87;78.22
59939;BME280;45801;51.810;19.444;2023-09-30T09:48:04;99587.37;;;17.82;77.57
59939;BME280;45801;51.810;19.444;2023-09-30T09:50:30;99594.80;;;17.81;78.00
59939;BME280;45801;51.810;19.444;2023-09-30T09:52:59;99601.66;;;17.79;77.99
59939;BME280;45801;51.810;19.444;2023-09-30T09:55:27;99600.94;;;17.78;77.76
59939;BME280;45801;51.810;19.444;2023-09-30T09:57:53;99603.06;;;17.79;77.74
59939;BME280;45801;51.810;19.444;2023-09-30T10:00:25;99600.95;;;17.80;77.94
59939;BME280;45801;51.810;19.444;2023-09-30T10:02:52;99600.80;;;17.80;77.87
59939;BME280;45801;51.810;19.444;2023-09-30T10:05:19;99607.79;;;17.84;77.88
59939;BME280;45801;51.810;19.444;2023-09-30T10:07:47;99610.87;;;17.87;77.67
59939;BME280;45801;51.810;19.444;2023-09-30T10:10:18;99613.16;;;17.87;76.95
59939;BME280;45801;51.810;19.444;2023-09-30T10:12:45;99612.98;;;17.87;76.94
59939;BME280;45801;51.810;19.444;2023-09-30T10:18:09;99608.83;;;17.90;76.21
59939;BME280;45801;51.810;19.444;2023-09-30T10:20:38;99603.35;;;17.91;76.09
59939;BME280;45801;51.810;19.444;2023-09-30T10:23:26;99609.73;;;17.92;76.22
59939;BME280;45801;51.810;19.444;2023-09-30T10:26:15;99617.70;;;17.91;76.11
59939;BME280;45801;51.810;19.444;2023-09-30T10:28:42;99615.50;;;17.88;76.43
59939;BME280;45801;51.810;19.444;2023-09-30T10:31:22;99618.29;;;17.87;76.47
59939;BME280;45801;51.810;19.444;2023-09-30T10:36:37;99628.02;;;17.86;76.36
59939;BME280;45801;51.810;19.444;2023-09-30T10:39:10;99627.82;;;17.84;75.58
59939;BME280;45801;51.810;19.444;2023-09-30T10:46:58;99626.86;;;17.72;74.75
59939;BME280;45801;51.810;19.444;2023-09-30T10:51:57;99636.80;;;17.65;75.17
59939;BME280;45801;51.810;19.444;2023-09-30T10:54:25;99635.33;;;17.62;75.08
59939;BME280;45801;51.810;19.444;2023-09-30T10:56:52;99636.10;;;17.65;74.85
59939;BME280;45801;51.810;19.444;2023-09-30T10:59:19;99635.81;;;17.68;74.90
59939;BME280;45801;51.810;19.444;2023-09-30T11:01:45;99634.11;;;17.72;74.93
59939;BME280;45801;51.810;19.444;2023-09-30T11:04:11;99635.68;;;17.79;74.78
59939;BME280;45801;51.810;19.444;2023-09-30T11:06:41;99632.63;;;17.86;75.31
59939;BME280;45801;51.810;19.444;2023-09-30T11:09:08;99631.44;;;17.96;75.45
59939;BME280;45801;51.810;19.444;2023-09-30T11:11:44;99630.59;;;18.07;74.39
59939;BME280;45801;51.810;19.444;2023-09-30T11:14:29;99635.27;;;18.19;73.13
59939;BME280;45801;51.810;19.444;2023-09-30T11:17:00;99628.49;;;18.37;72.99
59939;BME280;45801;51.810;19.444;2023-09-30T11:19:45;99622.42;;;18.55;71.54
59939;BME280;45801;51.810;19.444;2023-09-30T11:22:12;99621.14;;;18.73;70.81
59939;BME280;45801;51.810;19.444;2023-09-30T11:24:38;99627.68;;;18.91;69.98
59939;BME280;45801;51.810;19.444;2023-09-30T11:27:04;99627.58;;;19.07;68.85
59939;BME280;45801;51.810;19.444;2023-09-30T11:29:30;99630.80;;;19.20;68.53
59939;BME280;45801;51.810;19.444;2023-09-30T11:31:56;99633.40;;;19.28;66.52
59939;BME280;45801;51.810;19.444;2023-09-30T11:34:37;99642.27;;;19.28;64.07
59939;BME280;45801;51.810;19.444;2023-09-30T11:37:03;99646.16;;;19.27;63.79
59939;BME280;45801;51.810;19.444;2023-09-30T11:39:30;99650.90;;;19.23;61.65
59939;BME280;45801;51.810;19.444;2023-09-30T11:41:56;99650.98;;;19.17;59.80
59939;BME280;45801;51.810;19.444;2023-09-30T11:44:24;99650.02;;;19.12;59.24
59939;BME280;45801;51.810;19.444;2023-09-30T11:47:01;99645.98;;;19.04;56.72
59939;BME280;45801;51.810;19.444;2023-09-30T11:49:35;99649.48;;;19.00;58.92
59939;BME280;45801;51.810;19.444;2023-09-30T11:52:09;99647.19;;;19.01;59.64
59939;BME280;45801;51.810;19.444;2023-09-30T11:54:40;99642.79;;;19.04;57.49
59939;BME280;45801;51.810;19.444;2023-09-30T11:57:12;99642.38;;;19.11;59.68
59939;BME280;45801;51.810;19.444;2023-09-30T11:59:41;99640.92;;;19.22;59.84
59939;BME280;45801;51.810;19.444;2023-09-30T12:02:11;99640.23;;;19.35;59.86
59939;BME280;45801;51.810;19.444;2023-09-30T12:04:38;99632.61;;;19.48;60.18
59939;BME280;45801;51.810;19.444;2023-09-30T12:07:04;99632.90;;;19.57;58.58
59939;BME280;45801;51.810;19.444;2023-09-30T12:09:32;99633.22;;;19.67;58.29
59939;BME280;45801;51.810;19.444;2023-09-30T12:12:00;99637.98;;;19.77;58.41
59939;BME280;45801;51.810;19.444;2023-09-30T12:14:26;99643.83;;;19.90;58.21
59939;BME280;45801;51.810;19.444;2023-09-30T12:16:55;99643.63;;;20.01;56.88
59939;BME280;45801;51.810;19.444;2023-09-30T12:19:21;99637.67;;;20.10;56.36
59939;BME280;45801;51.810;19.444;2023-09-30T12:21:47;99635.75;;;20.13;54.02
59939;BME280;45801;51.810;19.444;2023-09-30T12:24:15;99641.64;;;20.15;54.05
59939;BME280;45801;51.810;19.444;2023-09-30T12:26:43;99641.66;;;20.16;53.42
59939;BME280;45801;51.810;19.444;2023-09-30T12:31:46;99647.11;;;20.10;52.67
59939;BME280;45801;51.810;19.444;2023-09-30T12:34:13;99649.88;;;20.03;53.40
59939;BME280;45801;51.810;19.444;2023-09-30T12:36:39;99652.13;;;19.98;54.06
59939;BME280;45801;51.810;19.444;2023-09-30T12:39:06;99643.24;;;19.99;55.34
59939;BME280;45801;51.810;19.444;2023-09-30T12:41:40;99646.74;;;19.95;53.86
59939;BME280;45801;51.810;19.444;2023-09-30T12:44:07;99650.25;;;19.90;54.84
59939;BME280;45801;51.810;19.444;2023-09-30T12:46:33;99645.44;;;19.89;54.43
59939;BME280;45801;51.810;19.444;2023-09-30T12:49:03;99642.59;;;19.89;55.73
59939;BME280;45801;51.810;19.444;2023-09-30T12:51:30;99647.00;;;19.86;55.56
59939;BME280;45801;51.810;19.444;2023-09-30T12:53:56;99648.06;;;19.74;51.86
59939;BME280;45801;51.810;19.444;2023-09-30T12:56:23;99647.39;;;19.63;52.45
59939;BME280;45801;51.810;19.444;2023-09-30T12:58:49;99653.37;;;19.59;54.35
59939;BME280;45801;51.810;19.444;2023-09-30T13:01:15;99655.64;;;19.56;54.34
59939;BME280;45801;51.810;19.444;2023-09-30T13:03:44;99651.86;;;19.53;55.09
59939;BME280;45801;51.810;19.444;2023-09-30T13:06:10;99650.22;;;19.50;55.28
59939;BME280;45801;51.810;19.444;2023-09-30T13:08:36;99649.80;;;19.45;55.30